Time;durP1;ratioP1;P1;durP2;ratioP2;P2;SDS_P1;SDS_P2;PMS_P1;PMS_P2;Temp;Humidity;BMP_temperature;BMP_pressure;BME280_temperature;BME280_humidity;BME280_pressure;Samples;Min_cycle;Max_cycle;Signal;HPM_P1;HPM_P2
2023/12/10 00:00:18;;;;;;;0.30;0.30;;;;;;;;;;6294736;28;20024;-74
2023/12/10 00:03:19;;;;;;;0.30;0.30;;;;;;;;;;6289376;28;20045;-74
2023/12/10 00:06:19;;;;;;;0.30;0.30;;;;;;;;;;6291459;28;20016;-74
2023/12/10 00:09:20;;;;;;;0.30;0.30;;;;;;;;;;6293515;28;20032;-75
2023/12/10 00:12:20;;;;;;;0.30;0.30;;;;;;;;;;6286040;28;20024;-74
2023/12/10 00:15:20;;;;;;;0.30;0.30;;;;;;;;;;6276077;28;20017;-74
2023/12/10 00:18:20;;;;;;;0.30;0.30;;;;;;;;;;6293936;28;21072;-75
2023/12/10 00:21:21;;;;;;;0.30;0.30;;;;;;;;;;6294047;28;20024;-74
2023/12/10 00:24:22;;;;;;;0.33;0.33;;;;;;;;;;6273830;28;20027;-80
2023/12/10 00:27:22;;;;;;;0.30;0.30;;;;;;;;;;6293940;28;20089;-80
2023/12/10 00:30:22;;;;;;;0.30;0.30;;;;;;;;;;6294257;28;20041;-80
2023/12/10 00:33:22;;;;;;;0.30;0.30;;;;;;;;;;6301048;28;20032;-79
2023/12/10 00:36:23;;;;;;;0.20;0.20;;;;;;;;;;6294212;28;20028;-79
2023/12/10 00:39:23;;;;;;;0.30;0.30;;;;;;;;;;6293501;28;20020;-80
2023/12/10 00:42:23;;;;;;;0.40;0.40;;;;;;;;;;6293411;28;20031;-74
2023/12/10 00:45:24;;;;;;;0.30;0.30;;;;;;;;;;6293685;28;20021;-75
2023/12/10 00:48:24;;;;;;;0.30;0.30;;;;;;;;;;6293767;28;20378;-74
2023/12/10 00:51:24;;;;;;;0.30;0.30;;;;;;;;;;6304717;28;20013;-74
2023/12/10 00:54:25;;;;;;;0.30;0.30;;;;;;;;;;6286848;28;20039;-80
2023/12/10 00:57:25;;;;;;;0.30;0.30;;;;;;;;;;6293258;28;20009;-79
2023/12/10 01:00:25;;;;;;;0.30;0.30;;;;;;;;;;6293755;28;20442;-78
2023/12/10 01:03:26;;;;;;;0.30;0.30;;;;;;;;;;6292896;28;20067;-79
2023/12/10 01:06:26;;;;;;;0.30;0.30;;;;;;;;;;6292076;28;20031;-81
2023/12/10 01:09:26;;;;;;;0.30;0.30;;;;;;;;;;6292524;28;20078;-79
2023/12/10 01:12:27;;;;;;;0.30;0.30;;;;;;;;;;6288179;28;20046;-80
2023/12/10 01:15:30;;;;;;;0.30;0.30;;;;;;;;;;6276088;28;20028;-79
2023/12/10 01:18:33;;;;;;;0.40;0.40;;;;;;;;;;6306695;28;20016;-79
2023/12/10 01:21:34;;;;;;;0.35;0.35;;;;;;;;;;6295411;28;20099;-79
2023/12/10 01:24:34;;;;;;;0.40;0.40;;;;;;;;;;6292934;28;20418;-79
2023/12/10 01:27:34;;;;;;;0.30;0.30;;;;;;;;;;6292706;28;20021;-79
2023/12/10 01:30:34;;;;;;;0.30;0.30;;;;;;;;;;6292859;28;20378;-81
2023/12/10 01:33:35;;;;;;;0.30;0.30;;;;;;;;;;6282759;28;20035;-73
2023/12/10 01:36:35;;;;;;;0.30;0.30;;;;;;;;;;6296985;28;20470;-72
2023/12/10 01:39:35;;;;;;;0.30;0.30;;;;;;;;;;6303285;28;20477;-72
2023/12/10 01:42:36;;;;;;;0.30;0.30;;;;;;;;;;6295388;28;20012;-72
2023/12/10 01:45:36;;;;;;;0.30;0.30;;;;;;;;;;6292303;28;20021;-73
2023/12/10 01:48:38;;;;;;;0.30;0.30;;;;;;;;;;6292888;28;20016;-72
2023/12/10 01:51:38;;;;;;;0.40;0.40;;;;;;;;;;6305576;28;20491;-73
2023/12/10 01:54:38;;;;;;;0.30;0.30;;;;;;;;;;6291999;28;20112;-72
2023/12/10 01:57:39;;;;;;;0.30;0.30;;;;;;;;;;6296630;28;20016;-72
2023/12/10 02:00:39;;;;;;;0.40;0.40;;;;;;;;;;6301047;28;20036;-82
2023/12/10 02:03:40;;;;;;;0.30;0.30;;;;;;;;;;6312732;28;20435;-83
2023/12/10 02:06:40;;;;;;;0.30;0.30;;;;;;;;;;6295922;28;20019;-82
2023/12/10 02:09:40;;;;;;;0.30;0.30;;;;;;;;;;6295944;28;20078;-82
2023/12/10 02:12:41;;;;;;;0.30;0.30;;;;;;;;;;6292070;28;20383;-82
2023/12/10 02:15:42;;;;;;;0.30;0.30;;;;;;;;;;6291436;28;20024;-82
2023/12/10 02:18:42;;;;;;;0.30;0.30;;;;;;;;;;6272997;28;20550;-82
2023/12/10 02:21:45;;;;;;;0.33;0.33;;;;;;;;;;6291585;28;20047;-82
2023/12/10 02:24:54;;;;;;;0.30;0.30;;;;;;;;;;6261343;28;20503;-83
2023/12/10 02:27:55;;;;;;;0.30;0.30;;;;;;;;;;6290766;28;20029;-83
2023/12/10 02:30:55;;;;;;;0.30;0.30;;;;;;;;;;6291553;28;20425;-82
2023/12/10 02:33:55;;;;;;;0.30;0.30;;;;;;;;;;6305580;28;20020;-82
2023/12/10 02:36:56;;;;;;;0.30;0.30;;;;;;;;;;6291390;28;20032;-83
2023/12/10 02:39:56;;;;;;;0.30;0.30;;;;;;;;;;6290478;28;20029;-82
2023/12/10 02:42:57;;;;;;;0.30;0.30;;;;;;;;;;6291140;28;20083;-82
2023/12/10 02:45:57;;;;;;;0.30;0.30;;;;;;;;;;6291694;28;20032;-82
2023/12/10 02:48:57;;;;;;;0.30;0.30;;;;;;;;;;6291434;28;20026;-83
2023/12/10 02:51:58;;;;;;;0.30;0.30;;;;;;;;;;6291456;28;20020;-83
2023/12/10 02:54:58;;;;;;;0.30;0.30;;;;;;;;;;6291587;28;20028;-83
2023/12/10 02:57:58;;;;;;;0.20;0.20;;;;;;;;;;6290389;28;20036;-83
2023/12/10 03:00:59;;;;;;;0.30;0.30;;;;;;;;;;6291061;28;20055;-83
2023/12/10 03:03:59;;;;;;;0.30;0.30;;;;;;;;;;6290811;28;20036;-83
2023/12/10 03:06:59;;;;;;;0.30;0.30;;;;;;;;;;6299817;28;20031;-82
2023/12/10 03:10:00;;;;;;;0.30;0.30;;;;;;;;;;6305972;28;20394;-83
2023/12/10 03:13:00;;;;;;;0.30;0.30;;;;;;;;;;6290488;28;20043;-83
2023/12/10 03:16:01;;;;;;;0.30;0.30;;;;;;;;;;6290218;28;20020;-83
2023/12/10 03:19:01;;;;;;;0.30;0.30;;;;;;;;;;6289729;28;20075;-83
2023/12/10 03:22:01;;;;;;;0.33;0.33;;;;;;;;;;6290155;28;20104;-73
2023/12/10 03:25:02;;;;;;;0.30;0.30;;;;;;;;;;6290421;28;20009;-72
2023/12/10 03:28:02;;;;;;;0.30;0.30;;;;;;;;;;6290464;28;20028;-72
2023/12/10 03:31:03;;;;;;;0.30;0.30;;;;;;;;;;6294934;28;20397;-72
2023/12/10 03:34:03;;;;;;;0.30;0.30;;;;;;;;;;6295073;28;20032;-72
2023/12/10 03:37:03;;;;;;;0.30;0.30;;;;;;;;;;6290375;28;20074;-73
2023/12/10 03:40:03;;;;;;;0.33;0.33;;;;;;;;;;6294769;28;20016;-73
2023/12/10 03:43:04;;;;;;;0.40;0.40;;;;;;;;;;6292661;28;20009;-72
2023/12/10 03:46:04;;;;;;;0.30;0.30;;;;;;;;;;6294628;28;20565;-72
2023/12/10 03:49:04;;;;;;;0.30;0.30;;;;;;;;;;6294702;28;20020;-72
2023/12/10 03:52:05;;;;;;;0.30;0.30;;;;;;;;;;6294625;28;20020;-72
2023/12/10 03:55:05;;;;;;;0.30;0.30;;;;;;;;;;6276405;28;20441;-72
2023/12/10 03:58:06;;;;;;;0.40;0.40;;;;;;;;;;6294296;28;20028;-72
2023/12/10 04:01:06;;;;;;;0.23;0.23;;;;;;;;;;6294784;28;20040;-72
2023/12/10 04:04:06;;;;;;;0.30;0.30;;;;;;;;;;6273999;28;20053;-72
2023/12/10 04:07:07;;;;;;;0.30;0.30;;;;;;;;;;6288134;28;20029;-72
2023/12/10 04:10:08;;;;;;;0.30;0.30;;;;;;;;;;6294397;28;20024;-72
2023/12/10 04:13:08;;;;;;;0.30;0.30;;;;;;;;;;6294542;28;20012;-72
2023/12/10 04:16:09;;;;;;;0.30;0.30;;;;;;;;;;6276201;28;20506;-72
2023/12/10 04:19:10;;;;;;;0.30;0.30;;;;;;;;;;6294358;28;20157;-72
2023/12/10 04:22:10;;;;;;;0.30;0.30;;;;;;;;;;6292744;28;20043;-73
2023/12/10 04:25:10;;;;;;;0.30;0.30;;;;;;;;;;6305206;28;20012;-72
2023/12/10 04:28:10;;;;;;;0.30;0.30;;;;;;;;;;6306362;28;20389;-72
2023/12/10 04:31:11;;;;;;;0.30;0.30;;;;;;;;;;6294500;28;20157;-72
2023/12/10 04:34:11;;;;;;;0.30;0.30;;;;;;;;;;6294150;28;20017;-84
2023/12/10 04:37:11;;;;;;;0.30;0.30;;;;;;;;;;6289183;28;20063;-84
2023/12/10 04:40:12;;;;;;;0.30;0.30;;;;;;;;;;6276126;28;20019;-84
2023/12/10 04:43:12;;;;;;;0.30;0.30;;;;;;;;;;6295427;28;20016;-83
2023/12/10 04:46:12;;;;;;;0.30;0.30;;;;;;;;;;6275525;28;20043;-84
2023/12/10 04:49:12;;;;;;;0.30;0.30;;;;;;;;;;6284399;28;20111;-84
2023/12/10 04:52:13;;;;;;;0.30;0.30;;;;;;;;;;6288675;28;20056;-84
2023/12/10 04:55:13;;;;;;;0.30;0.30;;;;;;;;;;6306851;28;20020;-85
2023/12/10 04:58:13;;;;;;;0.33;0.33;;;;;;;;;;6293686;28;20426;-83
2023/12/10 05:01:15;;;;;;;0.23;0.23;;;;;;;;;;6292251;28;20024;-84
2023/12/10 05:04:15;;;;;;;0.30;0.30;;;;;;;;;;6291250;28;20048;-83
2023/12/10 05:07:15;;;;;;;0.30;0.30;;;;;;;;;;6293809;28;20069;-84
2023/12/10 05:10:15;;;;;;;0.30;0.30;;;;;;;;;;6292890;28;20016;-83
2023/12/10 05:13:16;;;;;;;0.30;0.30;;;;;;;;;;6293132;28;20023;-84
2023/12/10 05:16:16;;;;;;;0.30;0.30;;;;;;;;;;6292521;28;20062;-83
2023/12/10 05:19:16;;;;;;;0.30;0.30;;;;;;;;;;6293124;28;20553;-84
2023/12/10 05:22:17;;;;;;;0.30;0.30;;;;;;;;;;6298521;28;20035;-83
2023/12/10 05:25:17;;;;;;;0.30;0.30;;;;;;;;;;6292915;28;20461;-83
2023/12/10 05:28:17;;;;;;;0.30;0.30;;;;;;;;;;6288662;28;20017;-83
2023/12/10 05:31:17;;;;;;;0.27;0.27;;;;;;;;;;6292259;28;20577;-84
2023/12/10 05:34:18;;;;;;;0.30;0.30;;;;;;;;;;6293463;28;20033;-83
2023/12/10 05:37:18;;;;;;;0.30;0.30;;;;;;;;;;6291824;28;20139;-84
2023/12/10 05:40:18;;;;;;;0.20;0.20;;;;;;;;;;6274201;28;20500;-83
2023/12/10 05:43:18;;;;;;;0.30;0.30;;;;;;;;;;6290074;28;20091;-83
2023/12/10 05:46:19;;;;;;;0.30;0.30;;;;;;;;;;6299372;28;20450;-84
2023/12/10 05:49:19;;;;;;;0.30;0.30;;;;;;;;;;6296035;28;20112;-83
2023/12/10 05:52:19;;;;;;;0.30;0.30;;;;;;;;;;6296029;28;20027;-73
2023/12/10 05:55:20;;;;;;;0.40;0.40;;;;;;;;;;6290870;28;20035;-72
2023/12/10 05:58:21;;;;;;;0.20;0.20;;;;;;;;;;6299300;28;20111;-72
2023/12/10 06:01:21;;;;;;;0.30;0.30;;;;;;;;;;6284942;28;20055;-73
2023/12/10 06:04:22;;;;;;;0.20;0.20;;;;;;;;;;6291319;28;20089;-72
2023/12/10 06:07:22;;;;;;;0.30;0.30;;;;;;;;;;6304013;28;20103;-72
2023/12/10 06:10:22;;;;;;;0.20;0.20;;;;;;;;;;6293391;28;20067;-72
2023/12/10 06:13:22;;;;;;;0.30;0.30;;;;;;;;;;6291759;28;20025;-72
2023/12/10 06:16:23;;;;;;;0.30;0.30;;;;;;;;;;6290788;28;20384;-72
2023/12/10 06:19:24;;;;;;;0.30;0.30;;;;;;;;;;6291774;28;20099;-72
2023/12/10 06:22:24;;;;;;;0.23;0.23;;;;;;;;;;6289367;28;20032;-72
2023/12/10 06:25:24;;;;;;;0.20;0.20;;;;;;;;;;6287648;28;20059;-72
2023/12/10 06:28:24;;;;;;;0.30;0.30;;;;;;;;;;6292998;28;20020;-72
2023/12/10 06:31:25;;;;;;;0.30;0.30;;;;;;;;;;6296896;28;20024;-72
2023/12/10 06:34:25;;;;;;;0.20;0.20;;;;;;;;;;6283432;28;20040;-72
2023/12/10 06:37:25;;;;;;;0.40;0.40;;;;;;;;;;6294466;28;20067;-72
2023/12/10 06:40:26;;;;;;;0.30;0.30;;;;;;;;;;6275171;28;20035;-72
2023/12/10 06:43:28;;;;;;;0.30;0.30;;;;;;;;;;6293929;28;20017;-72
2023/12/10 06:46:28;;;;;;;;;;;;;;;;;;6290936;28;20114;-72
2023/12/10 06:49:28;;;;;;;0.20;0.20;;;;;;;;;;6291357;28;20373;-72
2023/12/10 06:52:28;;;;;;;0.20;0.20;;;;;;;;;;6285876;28;20031;-81
2023/12/10 06:55:28;;;;;;;0.30;0.30;;;;;;;;;;6283710;28;20440;-81
2023/12/10 06:58:29;;;;;;;0.20;0.20;;;;;;;;;;6290359;28;20039;-81
2023/12/10 07:01:29;;;;;;;0.30;0.30;;;;;;;;;;6289945;28;20047;-81
2023/12/10 07:04:29;;;;;;;0.23;0.23;;;;;;;;;;6300822;28;20040;-81
2023/12/10 07:07:29;;;;;;;0.20;0.20;;;;;;;;;;6307542;28;20398;-81
2023/12/10 07:10:30;;;;;;;0.30;0.30;;;;;;;;;;6293852;28;20020;-82
2023/12/10 07:13:30;;;;;;;0.30;0.30;;;;;;;;;;6298708;28;20105;-73
2023/12/10 07:16:30;;;;;;;0.20;0.20;;;;;;;;;;6280675;28;20024;-73
2023/12/10 07:19:31;;;;;;;0.20;0.20;;;;;;;;;;6293696;28;20056;-73
2023/12/10 07:22:31;;;;;;;0.30;0.30;;;;;;;;;;6293929;28;20021;-73
2023/12/10 07:25:31;;;;;;;0.30;0.30;;;;;;;;;;6293102;28;20107;-73
2023/12/10 07:28:31;;;;;;;0.20;0.20;;;;;;;;;;6294664;28;20039;-73
2023/12/10 07:31:32;;;;;;;0.20;0.20;;;;;;;;;;6292575;28;20031;-72
2023/12/10 07:34:32;;;;;;;0.20;0.20;;;;;;;;;;6297968;28;20031;-73
2023/12/10 07:37:32;;;;;;;0.27;0.27;;;;;;;;;;6279805;28;20450;-73
2023/12/10 07:40:32;;;;;;;0.20;0.20;;;;;;;;;;6296243;28;20036;-72
2023/12/10 07:43:33;;;;;;;0.30;0.30;;;;;;;;;;6291946;28;20044;-73
2023/12/10 07:46:33;;;;;;;0.30;0.30;;;;;;;;;;6292358;28;20090;-73
2023/12/10 07:49:33;;;;;;;0.20;0.20;;;;;;;;;;6286604;28;20055;-72
2023/12/10 07:52:33;;;;;;;0.30;0.30;;;;;;;;;;6292704;28;20077;-73
2023/12/10 07:55:34;;;;;;;0.20;0.20;;;;;;;;;;6290488;28;20542;-73
2023/12/10 07:58:34;;;;;;;0.20;0.20;;;;;;;;;;6293323;28;20079;-73
2023/12/10 08:01:34;;;;;;;0.20;0.20;;;;;;;;;;6294462;28;20395;-80
2023/12/10 08:04:35;;;;;;;0.30;0.30;;;;;;;;;;6293969;28;20129;-82
2023/12/10 08:07:35;;;;;;;0.30;0.30;;;;;;;;;;6296756;28;20059;-82
2023/12/10 08:10:35;;;;;;;0.20;0.20;;;;;;;;;;6293983;28;20020;-82
2023/12/10 08:13:36;;;;;;;0.20;0.20;;;;;;;;;;6292362;28;20111;-73
2023/12/10 08:16:36;;;;;;;0.20;0.20;;;;;;;;;;6309311;28;20113;-72
2023/12/10 08:19:37;;;;;;;0.20;0.20;;;;;;;;;;6305416;28;20035;-73
2023/12/10 08:22:38;;;;;;;0.30;0.30;;;;;;;;;;6284514;28;20032;-82
2023/12/10 08:25:38;;;;;;;0.20;0.20;;;;;;;;;;6293442;28;20025;-82
2023/12/10 08:28:38;;;;;;;0.20;0.20;;;;;;;;;;6276139;28;20091;-82
2023/12/10 08:31:39;;;;;;;0.20;0.20;;;;;;;;;;6269903;28;20025;-82
2023/12/10 08:34:39;;;;;;;0.20;0.20;;;;;;;;;;6289547;28;20028;-82
2023/12/10 08:37:40;;;;;;;0.20;0.20;;;;;;;;;;6293253;28;20020;-82
2023/12/10 08:40:40;;;;;;;0.20;0.20;;;;;;;;;;6293542;28;20075;-82
2023/12/10 08:43:40;;;;;;;0.20;0.20;;;;;;;;;;6293807;28;20023;-72
2023/12/10 08:46:40;;;;;;;0.20;0.20;;;;;;;;;;6293576;28;20115;-73
2023/12/10 08:49:41;;;;;;;0.20;0.20;;;;;;;;;;6304419;28;20338;-72
2023/12/10 08:52:41;;;;;;;0.20;0.20;;;;;;;;;;6290296;28;20036;-72
2023/12/10 08:55:41;;;;;;;0.20;0.20;;;;;;;;;;6291509;28;20059;-72
2023/12/10 08:58:42;;;;;;;0.20;0.20;;;;;;;;;;6292813;28;20051;-73
2023/12/10 09:01:43;;;;;;;0.20;0.20;;;;;;;;;;6302723;28;20016;-72
2023/12/10 09:04:43;;;;;;;0.20;0.20;;;;;;;;;;6292272;28;20045;-72
2023/12/10 09:07:43;;;;;;;0.20;0.20;;;;;;;;;;6293076;28;20378;-73
2023/12/10 09:10:44;;;;;;;0.20;0.20;;;;;;;;;;6291760;28;20024;-73
2023/12/10 09:13:44;;;;;;;0.20;0.20;;;;;;;;;;6291106;28;20043;-73
2023/12/10 09:16:46;;;;;;;0.20;0.20;;;;;;;;;;6289497;28;20028;-73
2023/12/10 09:19:48;;;;;;;0.20;0.20;;;;;;;;;;6277446;28;20074;-73
2023/12/10 09:22:48;;;;;;;0.20;0.20;;;;;;;;;;6290451;28;20526;-73
2023/12/10 09:25:48;;;;;;;0.20;0.20;;;;;;;;;;6266312;28;20025;-73
2023/12/10 09:28:49;;;;;;;0.20;0.20;;;;;;;;;;6288578;28;20024;-73
2023/12/10 09:31:49;;;;;;;0.20;0.20;;;;;;;;;;6290065;28;20028;-73
2023/12/10 09:34:50;;;;;;;0.20;0.20;;;;;;;;;;6290900;28;20066;-73
2023/12/10 09:37:50;;;;;;;0.20;0.20;;;;;;;;;;6291081;28;20107;-73
2023/12/10 09:40:50;;;;;;;0.20;0.20;;;;;;;;;;6289575;28;20060;-73
2023/12/10 09:43:51;;;;;;;0.20;0.20;;;;;;;;;;6291990;28;20028;-73
2023/12/10 09:46:51;;;;;;;0.20;0.20;;;;;;;;;;6291196;28;20020;-73
2023/12/10 09:49:54;;;;;;;0.20;0.20;;;;;;;;;;6294221;28;20126;-72
2023/12/10 09:52:54;;;;;;;0.20;0.20;;;;;;;;;;6296213;28;20025;-73
2023/12/10 09:55:55;;;;;;;0.20;0.20;;;;;;;;;;6290699;28;20044;-73
2023/12/10 09:58:55;;;;;;;0.20;0.20;;;;;;;;;;6273708;28;20042;-73
2023/12/10 10:01:56;;;;;;;0.20;0.20;;;;;;;;;;6285653;28;20111;-78
2023/12/10 10:04:57;;;;;;;0.20;0.20;;;;;;;;;;6294593;28;20063;-77
2023/12/10 10:07:57;;;;;;;0.20;0.20;;;;;;;;;;6267230;28;20028;-78
2023/12/10 10:10:57;;;;;;;0.20;0.20;;;;;;;;;;6296545;28;20115;-77
2023/12/10 10:13:58;;;;;;;0.20;0.20;;;;;;;;;;6294557;28;20012;-77
2023/12/10 10:16:58;;;;;;;0.20;0.20;;;;;;;;;;6283078;28;20366;-77
2023/12/10 10:19:59;;;;;;;0.20;0.20;;;;;;;;;;6297196;28;20035;-77
2023/12/10 10:23:00;;;;;;;0.20;0.20;;;;;;;;;;6292179;28;20024;-77
2023/12/10 10:26:00;;;;;;;0.20;0.20;;;;;;;;;;6285693;28;20435;-76
2023/12/10 10:29:02;;;;;;;0.20;0.20;;;;;;;;;;6292164;28;20128;-76
2023/12/10 10:32:02;;;;;;;0.20;0.20;;;;;;;;;;6295730;28;20141;-76
2023/12/10 10:35:03;;;;;;;0.20;0.20;;;;;;;;;;6290779;28;20040;-77
2023/12/10 10:38:04;;;;;;;0.20;0.20;;;;;;;;;;6284575;28;20060;-76
2023/12/10 10:41:04;;;;;;;0.20;0.20;;;;;;;;;;6285483;28;20605;-76
2023/12/10 10:44:05;;;;;;;0.20;0.20;;;;;;;;;;6295890;28;20009;-72
2023/12/10 10:47:08;;;;;;;0.20;0.20;;;;;;;;;;6277064;28;20478;-72
2023/12/10 10:50:08;;;;;;;0.20;0.20;;;;;;;;;;6277445;28;20632;-72
2023/12/10 10:53:09;;;;;;;0.20;0.20;;;;;;;;;;6302354;28;20065;-76
2023/12/10 10:56:10;;;;;;;0.20;0.20;;;;;;;;;;6288557;28;20024;-75
2023/12/10 10:59:30;;;;;;;0.20;0.20;;;;;;;;;;6295681;28;20027;-76
2023/12/10 11:02:30;;;;;;;0.20;0.20;;;;;;;;;;6298302;28;20394;-75
2023/12/10 11:05:34;;;;;;;0.20;0.20;;;;;;;;;;6287702;28;20319;-75
2023/12/10 11:08:35;;;;;;;0.20;0.20;;;;;;;;;;6299684;28;20031;-75
2023/12/10 11:11:39;;;;;;;0.20;0.20;;;;;;;;;;6294008;28;20009;-75
2023/12/10 11:14:39;;;;;;;0.20;0.20;;;;;;;;;;6292006;28;20159;-75
2023/12/10 11:17:54;;;;;;;0.20;0.20;;;;;;;;;;6294503;28;20024;-75
2023/12/10 11:20:55;;;;;;;0.20;0.20;;;;;;;;;;6285378;28;20090;-75
2023/12/10 11:23:55;;;;;;;0.20;0.20;;;;;;;;;;6297058;28;20016;-75
2023/12/10 11:26:55;;;;;;;0.20;0.20;;;;;;;;;;6295610;28;20013;-74
2023/12/10 11:29:55;;;;;;;0.20;0.20;;;;;;;;;;6295171;28;20445;-74
2023/12/10 11:32:56;;;;;;;0.20;0.20;;;;;;;;;;6297590;28;20028;-75
2023/12/10 11:35:57;;;;;;;0.10;0.10;;;;;;;;;;6295439;28;20012;-74
2023/12/10 11:38:57;;;;;;;0.20;0.20;;;;;;;;;;6296547;28;20024;-74
2023/12/10 11:41:57;;;;;;;0.20;0.20;;;;;;;;;;6282706;28;20060;-73
2023/12/10 11:44:58;;;;;;;0.20;0.20;;;;;;;;;;6284978;28;20390;-72
2023/12/10 11:47:58;;;;;;;0.20;0.20;;;;;;;;;;6291635;28;20086;-73
2023/12/10 11:51:00;;;;;;;0.20;0.20;;;;;;;;;;6292769;28;20103;-73
2023/12/10 11:54:00;;;;;;;0.20;0.20;;;;;;;;;;6282376;28;20030;-73
2023/12/10 11:57:00;;;;;;;0.20;0.20;;;;;;;;;;6290693;28;20032;-73
2023/12/10 12:00:04;;;;;;;0.20;0.20;;;;;;;;;;6307253;28;20017;-74
2023/12/10 12:03:09;;;;;;;0.20;0.20;;;;;;;;;;6302887;28;20031;-74
2023/12/10 12:06:09;;;;;;;0.20;0.20;;;;;;;;;;6307374;28;20008;-74
2023/12/10 12:09:14;;;;;;;0.20;0.20;;;;;;;;;;6295488;28;20079;-74
2023/12/10 12:12:14;;;;;;;0.20;0.20;;;;;;;;;;6303089;28;20035;-74
2023/12/10 12:15:15;;;;;;;0.10;0.10;;;;;;;;;;6291842;28;20017;-75
2023/12/10 12:18:16;;;;;;;0.20;0.20;;;;;;;;;;6288993;28;20031;-75
2023/12/10 12:21:16;;;;;;;0.20;0.20;;;;;;;;;;6293381;28;20550;-75
2023/12/10 12:24:16;;;;;;;0.20;0.20;;;;;;;;;;6294861;28;20012;-76
2023/12/10 12:27:17;;;;;;;0.20;0.20;;;;;;;;;;6297861;28;20013;-77
2023/12/10 12:30:18;;;;;;;0.20;0.20;;;;;;;;;;6299824;28;20020;-77
2023/12/10 12:33:18;;;;;;;0.20;0.20;;;;;;;;;;6287841;28;20027;-77
2023/12/10 12:36:19;;;;;;;0.20;0.20;;;;;;;;;;6266248;28;20025;-77
2023/12/10 12:39:19;;;;;;;0.20;0.20;;;;;;;;;;6270031;28;20024;-76
2023/12/10 12:42:19;;;;;;;0.20;0.20;;;;;;;;;;6287145;28;20017;-77
2023/12/10 12:45:20;;;;;;;0.20;0.20;;;;;;;;;;6294091;28;20397;-77
2023/12/10 12:48:20;;;;;;;0.20;0.20;;;;;;;;;;6297874;28;20013;-77
2023/12/10 12:51:21;;;;;;;0.20;0.20;;;;;;;;;;6286957;28;20398;-77
2023/12/10 12:54:21;;;;;;;0.20;0.20;;;;;;;;;;6289928;28;20012;-77
2023/12/10 12:57:21;;;;;;;0.20;0.20;;;;;;;;;;6292763;28;20022;-77
2023/12/10 13:00:21;;;;;;;0.10;0.10;;;;;;;;;;6294924;28;20052;-77
2023/12/10 13:03:22;;;;;;;0.20;0.20;;;;;;;;;;6302565;28;20036;-76
2023/12/10 13:06:22;;;;;;;0.20;0.20;;;;;;;;;;6298801;28;20063;-76
2023/12/10 13:09:22;;;;;;;0.20;0.20;;;;;;;;;;6299553;28;20028;-76
2023/12/10 13:12:22;;;;;;;0.20;0.20;;;;;;;;;;6289096;28;20073;-76
2023/12/10 13:15:23;;;;;;;0.20;0.20;;;;;;;;;;6284276;28;20029;-76
2023/12/10 13:18:23;;;;;;;0.20;0.20;;;;;;;;;;6300941;28;20491;-77
2023/12/10 13:21:23;;;;;;;0.20;0.20;;;;;;;;;;6295372;28;20036;-78
2023/12/10 13:24:23;;;;;;;0.20;0.20;;;;;;;;;;6276488;28;20060;-73
2023/12/10 13:27:24;;;;;;;0.20;0.20;;;;;;;;;;6293366;28;20057;-74
2023/12/10 13:30:24;;;;;;;0.20;0.20;;;;;;;;;;6291532;28;20390;-74
2023/12/10 13:33:24;;;;;;;0.20;0.20;;;;;;;;;;6294486;28;20048;-74
2023/12/10 13:36:25;;;;;;;0.20;0.20;;;;;;;;;;6287287;28;20028;-74
2023/12/10 13:39:25;;;;;;;0.20;0.20;;;;;;;;;;6285851;28;20071;-74
2023/12/10 13:42:25;;;;;;;0.20;0.20;;;;;;;;;;6296405;28;20503;-74
2023/12/10 13:45:25;;;;;;;0.20;0.20;;;;;;;;;;6291094;28;20020;-74
2023/12/10 13:48:26;;;;;;;0.20;0.20;;;;;;;;;;6286638;28;20529;-75
2023/12/10 13:51:26;;;;;;;0.20;0.20;;;;;;;;;;6286483;28;20386;-75
2023/12/10 13:54:26;;;;;;;0.20;0.20;;;;;;;;;;6292813;28;20020;-75
2023/12/10 13:57:31;;;;;;;0.20;0.20;;;;;;;;;;6286802;28;20031;-76
2023/12/10 14:00:32;;;;;;;0.20;0.20;;;;;;;;;;6289209;28;20035;-76
2023/12/10 14:03:32;;;;;;;0.20;0.20;;;;;;;;;;6286897;28;20053;-75
2023/12/10 14:06:32;;;;;;;0.20;0.20;;;;;;;;;;6270429;28;20020;-76
2023/12/10 14:09:33;;;;;;;0.20;0.20;;;;;;;;;;6286671;28;20087;-76
2023/12/10 14:12:33;;;;;;;0.20;0.20;;;;;;;;;;6265878;28;20537;-75
2023/12/10 14:15:33;;;;;;;0.20;0.20;;;;;;;;;;6285584;28;20024;-76
2023/12/10 14:18:33;;;;;;;0.20;0.20;;;;;;;;;;6282248;28;20040;-76
2023/12/10 14:21:34;;;;;;;0.20;0.20;;;;;;;;;;6285423;28;20038;-76
2023/12/10 14:24:34;;;;;;;0.20;0.20;;;;;;;;;;6297303;28;20034;-76
2023/12/10 14:27:34;;;;;;;0.20;0.20;;;;;;;;;;6292443;28;20028;-77
2023/12/10 14:30:34;;;;;;;0.20;0.20;;;;;;;;;;6289108;28;20035;-77
2023/12/10 14:33:36;;;;;;;0.20;0.20;;;;;;;;;;6290426;28;20566;-85
2023/12/10 14:36:36;;;;;;;0.20;0.20;;;;;;;;;;6283404;28;20107;-84
2023/12/10 14:39:37;;;;;;;0.20;0.20;;;;;;;;;;6278465;28;20078;-83
2023/12/10 14:42:37;;;;;;;0.20;0.20;;;;;;;;;;6302252;28;20048;-82
2023/12/10 14:45:38;;;;;;;0.20;0.20;;;;;;;;;;6288658;28;20043;-81
2023/12/10 14:48:38;;;;;;;0.20;0.20;;;;;;;;;;6271935;28;20021;-81
2023/12/10 14:51:38;;;;;;;0.20;0.20;;;;;;;;;;6285811;28;20104;-80
2023/12/10 14:54:39;;;;;;;0.20;0.20;;;;;;;;;;6289692;28;20021;-80
2023/12/10 14:57:42;;;;;;;0.20;0.20;;;;;;;;;;6270643;28;20572;-79
2023/12/10 15:00:42;;;;;;;0.20;0.20;;;;;;;;;;6289391;28;20033;-79
2023/12/10 15:03:42;;;;;;;0.20;0.20;;;;;;;;;;6289136;28;20048;-78
2023/12/10 15:06:44;;;;;;;0.20;0.20;;;;;;;;;;6289754;28;20078;-78
2023/12/10 15:09:45;;;;;;;0.20;0.20;;;;;;;;;;6289309;28;20032;-77
2023/12/10 15:12:46;;;;;;;0.20;0.20;;;;;;;;;;6298851;28;20108;-76
2023/12/10 15:15:46;;;;;;;0.20;0.20;;;;;;;;;;6289280;28;20024;-75
2023/12/10 15:18:46;;;;;;;0.20;0.20;;;;;;;;;;6286542;28;20127;-75
2023/12/10 15:21:47;;;;;;;0.20;0.20;;;;;;;;;;6289174;28;20036;-75
2023/12/10 15:24:47;;;;;;;0.20;0.20;;;;;;;;;;6295941;28;20453;-75
2023/12/10 15:27:47;;;;;;;0.20;0.20;;;;;;;;;;6294447;28;20086;-75
2023/12/10 15:30:48;;;;;;;0.20;0.20;;;;;;;;;;6293770;28;20028;-75
2023/12/10 15:33:48;;;;;;;0.20;0.20;;;;;;;;;;6293747;28;20104;-74
2023/12/10 15:36:48;;;;;;;0.20;0.20;;;;;;;;;;6293567;28;20104;-74
2023/12/10 15:39:49;;;;;;;0.20;0.20;;;;;;;;;;6293403;28;20391;-74
2023/12/10 15:42:49;;;;;;;0.20;0.20;;;;;;;;;;6293795;28;20458;-74
2023/12/10 15:45:49;;;;;;;0.20;0.20;;;;;;;;;;6293231;28;20494;-74
2023/12/10 15:48:51;;;;;;;0.20;0.20;;;;;;;;;;6292970;28;20523;-74
2023/12/10 15:51:52;;;;;;;;;;;;;;;;;;6293288;28;20021;-73
2023/12/10 15:54:52;;;;;;;0.20;0.20;;;;;;;;;;6293918;28;19915;-73
2023/12/10 15:57:53;;;;;;;0.20;0.20;;;;;;;;;;6293167;28;20025;-73
2023/12/10 16:00:53;;;;;;;0.20;0.20;;;;;;;;;;6293010;28;20031;-73
2023/12/10 16:03:53;;;;;;;0.20;0.20;;;;;;;;;;6291788;28;20049;-74
2023/12/10 16:06:54;;;;;;;0.20;0.20;;;;;;;;;;6273982;28;20034;-74
2023/12/10 16:09:54;;;;;;;0.20;0.20;;;;;;;;;;6305164;28;20028;-73
2023/12/10 16:12:54;;;;;;;0.20;0.20;;;;;;;;;;6284985;28;20138;-79
2023/12/10 16:15:55;;;;;;;0.20;0.20;;;;;;;;;;6301216;28;20020;-78
2023/12/10 16:18:55;;;;;;;0.20;0.20;;;;;;;;;;6293416;28;20067;-78
2023/12/10 16:21:55;;;;;;;0.20;0.20;;;;;;;;;;6273187;28;20078;-78
2023/12/10 16:24:55;;;;;;;0.20;0.20;;;;;;;;;;6292573;28;20131;-78
2023/12/10 16:27:56;;;;;;;0.20;0.20;;;;;;;;;;6292393;28;20151;-78
2023/12/10 16:30:56;;;;;;;0.20;0.20;;;;;;;;;;6285523;28;20490;-78
2023/12/10 16:33:56;;;;;;;0.20;0.20;;;;;;;;;;6286858;28;20470;-74
2023/12/10 16:36:56;;;;;;;0.20;0.20;;;;;;;;;;6284663;28;20083;-74
2023/12/10 16:39:58;;;;;;;0.20;0.20;;;;;;;;;;6270816;28;20028;-74
2023/12/10 16:43:00;;;;;;;0.20;0.20;;;;;;;;;;6290005;28;20024;-74
2023/12/10 16:46:00;;;;;;;0.20;0.20;;;;;;;;;;6297375;28;20020;-74
2023/12/10 16:49:01;;;;;;;0.20;0.20;;;;;;;;;;6290812;28;20498;-73
2023/12/10 16:52:01;;;;;;;0.20;0.20;;;;;;;;;;6271731;28;20020;-74
2023/12/10 16:55:01;;;;;;;0.20;0.20;;;;;;;;;;6285329;28;20467;-74
2023/12/10 16:58:02;;;;;;;0.20;0.20;;;;;;;;;;6290730;28;20021;-74
2023/12/10 17:01:03;;;;;;;0.20;0.20;;;;;;;;;;6290503;28;20420;-74
2023/12/10 17:04:03;;;;;;;0.20;0.20;;;;;;;;;;6301311;28;20043;-74
2023/12/10 17:07:04;;;;;;;0.20;0.20;;;;;;;;;;6286828;28;20294;-74
2023/12/10 17:10:05;;;;;;;0.20;0.20;;;;;;;;;;6296159;28;20479;-74
2023/12/10 17:13:07;;;;;;;0.20;0.20;;;;;;;;;;6289762;28;20028;-74
2023/12/10 17:16:07;;;;;;;0.20;0.20;;;;;;;;;;6278013;28;20062;-74
2023/12/10 17:19:08;;;;;;;0.20;0.20;;;;;;;;;;6293732;28;20028;-74
2023/12/10 17:22:08;;;;;;;0.20;0.20;;;;;;;;;;6301283;28;20095;-74
2023/12/10 17:25:09;;;;;;;0.20;0.20;;;;;;;;;;6290205;28;20131;-74
2023/12/10 17:28:09;;;;;;;0.20;0.20;;;;;;;;;;6273572;28;20024;-74
2023/12/10 17:31:10;;;;;;;0.20;0.20;;;;;;;;;;6290316;28;20111;-74
2023/12/10 17:34:11;;;;;;;0.20;0.20;;;;;;;;;;6295020;28;20024;-74
2023/12/10 17:37:12;;;;;;;0.20;0.20;;;;;;;;;;6288313;28;20020;-74
2023/12/10 17:40:13;;;;;;;0.20;0.20;;;;;;;;;;6290021;28;20067;-74
2023/12/10 17:43:14;;;;;;;0.20;0.20;;;;;;;;;;6286639;28;20032;-74
2023/12/10 17:46:14;;;;;;;0.20;0.20;;;;;;;;;;6289934;28;20442;-74
2023/12/10 17:49:14;;;;;;;0.20;0.20;;;;;;;;;;6291406;28;20313;-74
2023/12/10 17:52:15;;;;;;;0.20;0.20;;;;;;;;;;6292453;28;20027;-77
2023/12/10 17:55:15;;;;;;;0.20;0.20;;;;;;;;;;6297538;28;20386;-78
2023/12/10 17:58:15;;;;;;;0.17;0.17;;;;;;;;;;6292244;28;20737;-77
2023/12/10 18:01:17;;;;;;;0.20;0.20;;;;;;;;;;6292207;28;20020;-77